MSC Bremen — A8LK7 — position and weather

sailwx.info

Track history (hours):
 
Tides and Currents Weather Stations Pressure Air Temp Water Temp Dewpoint Dewpoint Depression Visibility Wind Speed Wind Dir Waves Ship Positions

MSC Bremen

Last reported at 2018-Aug-21 01:30 UTC. Time now 2018-Aug-21 01:55 UTC.
Position N 37°29' E 023°42'.

Length 294 m; ; draft 13.7 m.

Type: Ship (hazmat cat A). MMSI: 636091270.

Date/timePositionNaut miles runAvg speedWind from/ knotsBaromVisibWave heightAir tempDewpointWater temp
2018-Aug-21 01:30N 37°29' E 023°42'0 0.5
2018-Aug-21 01:03N 37°29' E 023°42'0 0.7
2018-Aug-21 01:00N 37°29' E 023°42'0 0.8
2018-Aug-21 00:30N 37°29' E 023°42'0 0.9
2018-Aug-21 00:03N 37°30' E 023°41'0 1.0
2018-Aug-21 00:00N 37°30' E 023°41'0 0.9
2018-Aug-20 23:30N 37°30' E 023°41'0 1.0
2018-Aug-20 23:03N 37°31' E 023°41'0 0.9
2018-Aug-20 23:00N 37°31' E 023°41'0 0.9
2018-Aug-20 22:30N 37°31' E 023°41'1 1.1
2018-Aug-20 22:03N 37°32' E 023°41'0 1.1
2018-Aug-20 22:00N 37°32' E 023°41'1 1.1
2018-Aug-20 21:30N 37°32' E 023°41'1 1.2
2018-Aug-20 21:03N 37°33' E 023°41'0 1.1
2018-Aug-20 21:00N 37°33' E 023°41'1 1.1
2018-Aug-20 20:30N 37°33' E 023°41'0 1.0
2018-Aug-20 20:03N 37°34' E 023°41'0 1.0
2018-Aug-20 20:00N 37°34' E 023°41'0 0.9
2018-Aug-20 19:30N 37°34' E 023°41'0 0.8
2018-Aug-20 19:03N 37°35' E 023°41'0 0.8
2018-Aug-20 19:00N 37°35' E 023°41'0 0.7
2018-Aug-20 18:30N 37°35' E 023°42'0 0.6
2018-Aug-20 18:03N 37°35' E 023°42'0 0.5
2018-Aug-20 18:00N 37°35' E 023°42'0 0.3
2018-Aug-20 17:30N 37°35' E 023°42'2 5.2
2018-Aug-20 17:03N 37°33' E 023°40'0 7.2
2018-Aug-20 17:00N 37°33' E 023°39'4 7.3
2018-Aug-20 16:30N 37°30' E 023°37'1 2.8
2018-Aug-20 16:03N 37°29' E 023°36'0 1.0
2018-Aug-20 16:00N 37°29' E 023°36'0 0.9
2018-Aug-20 15:30N 37°30' E 023°36'0 0.9
2018-Aug-20 15:03N 37°30' E 023°36'0 0.9
2018-Aug-20 15:00N 37°30' E 023°36'0 1.0
2018-Aug-20 14:30N 37°30' E 023°37'0 1.0
2018-Aug-20 14:00N 37°31' E 023°37'0 0.9
2018-Aug-20 13:30N 37°31' E 023°38'0 0.9
2018-Aug-20 13:03N 37°31' E 023°38'0 0.9
2018-Aug-20 13:00N 37°31' E 023°38'0 0.7
2018-Aug-20 12:30N 37°31' E 023°39'0 0.7
2018-Aug-20 12:03N 37°32' E 023°39'0 0.8
2018-Aug-20 12:00N 37°32' E 023°39'0 0.8
2018-Aug-20 11:30N 37°32' E 023°39'0 0.6
2018-Aug-20 11:03N 37°32' E 023°39'0 0.6
2018-Aug-20 11:00N 37°32' E 023°39'0 0.7
2018-Aug-20 10:30N 37°33' E 023°39'0 0.7
2018-Aug-20 10:03N 37°33' E 023°39'0 0.7
2018-Aug-20 10:00N 37°33' E 023°39'0 0.9
2018-Aug-20 09:30N 37°33' E 023°40'0 1.0
2018-Aug-20 09:03N 37°34' E 023°40'0 1.1
2018-Aug-20 09:00N 37°34' E 023°40'1 1.3
2018-Aug-20 08:30N 37°34' E 023°40'1 1.3
2018-Aug-20 08:03N 37°35' E 023°41'0 1.3
2018-Aug-20 08:00N 37°35' E 023°41'0 1.0
2018-Aug-20 07:30N 37°35' E 023°41'1 2.6
2018-Aug-20 07:03N 37°34' E 023°40'0 6.6
2018-Aug-20 07:00N 37°34' E 023°40'3 6.7
2018-Aug-20 06:30N 37°31' E 023°39'1 3.0
2018-Aug-20 06:03N 37°29' E 023°39'0 1.3
2018-Aug-20 06:00N 37°30' E 023°39'1 1.1
2018-Aug-20 05:30N 37°30' E 023°40'0 1.1
2018-Aug-20 05:03N 37°31' E 023°40'0 1.3
2018-Aug-20 05:00N 37°31' E 023°40'0 1.2
2018-Aug-20 04:47N 37°31' E 023°40'0 1.2
2018-Aug-20 04:30N 37°31' E 023°39'1 1.2
2018-Aug-20 04:00N 37°32' E 023°39'1 1.2
2018-Aug-20 03:30N 37°32' E 023°39'1 1.3
2018-Aug-20 03:00N 37°33' E 023°39'1 1.3
2018-Aug-20 02:30N 37°34' E 023°39'1 1.2
2018-Aug-20 02:00N 37°34' E 023°39'1 1.1
2018-Aug-20 01:30N 37°35' E 023°40'0 1.0
2018-Aug-20 01:00N 37°35' E 023°40'0 0.9
2018-Aug-20 00:30N 37°36' E 023°40'2 3.0
2018-Aug-20 00:00N 37°36' E 023°42'714.5
2018-Aug-19 23:30N 37°34' E 023°51'714.5
2018-Aug-19 23:00N 37°33' E 024°00'1714.6
2018-Aug-19 21:50N 37°43' E 024°18'914.9
2018-Aug-19 21:15N 37°48' E 024°27'  
2018-Aug-15 21:00N 39°21' E 024°58'816.7
2018-Aug-15 20:30N 39°26' E 024°49'1017.0
2018-Aug-15 19:55N 39°31' E 024°38'717.4
2018-Aug-15 19:30N 39°34' E 024°30'917.1
2018-Aug-15 19:00N 39°39' E 024°20'917.3
2018-Aug-15 18:30N 39°40' E 024°09'916.8
2018-Aug-15 17:57N 39°42' E 023°57'1315.9
2018-Aug-15 17:08N 39°44' E 023°41'216.4
2018-Aug-15 17:00N 39°44' E 023°38'12 0.3
2018-Aug-13 23:33N 39°47' E 023°22'116.2
2018-Aug-13 23:29N 39°47' E 023°24'816.3
2018-Aug-13 23:00N 39°45' E 023°34'1516.2
2018-Aug-13 22:06N 39°43' E 023°52'116.0
2018-Aug-13 22:00N 39°43' E 023°54'815.6
2018-Aug-13 21:30N 39°41' E 024°04'815.6
2018-Aug-13 20:59N 39°41' E 024°15'1015.1
2018-Aug-13 20:20N 39°37' E 024°27'515.3
2018-Aug-13 20:00N 39°35' E 024°33'815.2
2018-Aug-13 19:30N 39°31' E 024°41'815.7
2018-Aug-13 19:00N 39°27' E 024°50'916.2
2018-Aug-13 18:27N 39°22' E 024°60'  
2018-Aug-11 07:23N 37°49' E 024°27'818.8
2018-Aug-11 06:58N 37°44' E 024°19'2215.7
2018-Aug-11 05:33N 37°36' E 023°53'116.1
2018-Aug-11 05:30N 37°36' E 023°52'815.9
2018-Aug-11 05:00N 37°39' E 023°43'816.9
2018-Aug-11 04:30N 37°47' E 023°38'816.4
2018-Aug-11 04:01N 37°55' E 023°36'2 4.5
2018-Aug-11 03:28N 37°57' E 023°36'0 0.0
2018-Aug-11 02:58N 37°57' E 023°36'0 0.0
2018-Aug-11 02:28N 37°57' E 023°36'0 0.0
2018-Aug-11 01:58N 37°57' E 023°36'  
Track history (hours):
 
Tides and Currents Weather Stations Pressure Air Temp Water Temp Dewpoint Dewpoint Depression Visibility Wind Speed Wind Dir Waves Ship Positions

MSC Bremen

Last reported at 2018-Aug-21 01:30 UTC. Time now 2018-Aug-21 01:55 UTC.
Position N 37°29' E 023°42'.

Length 294 m; ; draft 13.7 m.

Type: Ship (hazmat cat A). MMSI: 636091270.

Date/timePositionNaut miles runAvg speedWind from/ knotsBaromVisibWave heightAir tempDewpointWater temp
2018-Aug-21 01:30N 37°29' E 023°42'0 0.5
2018-Aug-21 01:03N 37°29' E 023°42'0 0.7
2018-Aug-21 01:00N 37°29' E 023°42'0 0.8
2018-Aug-21 00:30N 37°29' E 023°42'0 0.9
2018-Aug-21 00:03N 37°30' E 023°41'0 1.0
2018-Aug-21 00:00N 37°30' E 023°41'0 0.9
2018-Aug-20 23:30N 37°30' E 023°41'0 1.0
2018-Aug-20 23:03N 37°31' E 023°41'0 0.9
2018-Aug-20 23:00N 37°31' E 023°41'0 0.9
2018-Aug-20 22:30N 37°31' E 023°41'1 1.1
2018-Aug-20 22:03N 37°32' E 023°41'0 1.1
2018-Aug-20 22:00N 37°32' E 023°41'1 1.1
2018-Aug-20 21:30N 37°32' E 023°41'1 1.2
2018-Aug-20 21:03N 37°33' E 023°41'0 1.1
2018-Aug-20 21:00N 37°33' E 023°41'1 1.1
2018-Aug-20 20:30N 37°33' E 023°41'0 1.0
2018-Aug-20 20:03N 37°34' E 023°41'0 1.0
2018-Aug-20 20:00N 37°34' E 023°41'0 0.9
2018-Aug-20 19:30N 37°34' E 023°41'0 0.8
2018-Aug-20 19:03N 37°35' E 023°41'0 0.8
2018-Aug-20 19:00N 37°35' E 023°41'0 0.7
2018-Aug-20 18:30N 37°35' E 023°42'0 0.6
2018-Aug-20 18:03N 37°35' E 023°42'0 0.5
2018-Aug-20 18:00N 37°35' E 023°42'0 0.3
2018-Aug-20 17:30N 37°35' E 023°42'2 5.2
2018-Aug-20 17:03N 37°33' E 023°40'0 7.2
2018-Aug-20 17:00N 37°33' E 023°39'4 7.3
2018-Aug-20 16:30N 37°30' E 023°37'1 2.8
2018-Aug-20 16:03N 37°29' E 023°36'0 1.0
2018-Aug-20 16:00N 37°29' E 023°36'0 0.9
2018-Aug-20 15:30N 37°30' E 023°36'0 0.9
2018-Aug-20 15:03N 37°30' E 023°36'0 0.9
2018-Aug-20 15:00N 37°30' E 023°36'0 1.0
2018-Aug-20 14:30N 37°30' E 023°37'0 1.0
2018-Aug-20 14:00N 37°31' E 023°37'0 0.9
2018-Aug-20 13:30N 37°31' E 023°38'0 0.9
2018-Aug-20 13:03N 37°31' E 023°38'0 0.9
2018-Aug-20 13:00N 37°31' E 023°38'0 0.7
2018-Aug-20 12:30N 37°31' E 023°39'0 0.7
2018-Aug-20 12:03N 37°32' E 023°39'0 0.8
2018-Aug-20 12:00N 37°32' E 023°39'0 0.8
2018-Aug-20 11:30N 37°32' E 023°39'0 0.6
2018-Aug-20 11:03N 37°32' E 023°39'0 0.6
2018-Aug-20 11:00N 37°32' E 023°39'0 0.7
2018-Aug-20 10:30N 37°33' E 023°39'0 0.7
2018-Aug-20 10:03N 37°33' E 023°39'0 0.7
2018-Aug-20 10:00N 37°33' E 023°39'0 0.9
2018-Aug-20 09:30N 37°33' E 023°40'0 1.0
2018-Aug-20 09:03N 37°34' E 023°40'0 1.1
2018-Aug-20 09:00N 37°34' E 023°40'1 1.3
2018-Aug-20 08:30N 37°34' E 023°40'1 1.3
2018-Aug-20 08:03N 37°35' E 023°41'0 1.3
2018-Aug-20 08:00N 37°35' E 023°41'0 1.0
2018-Aug-20 07:30N 37°35' E 023°41'1 2.6
2018-Aug-20 07:03N 37°34' E 023°40'0 6.6
2018-Aug-20 07:00N 37°34' E 023°40'3 6.7
2018-Aug-20 06:30N 37°31' E 023°39'1 3.0
2018-Aug-20 06:03N 37°29' E 023°39'0 1.3
2018-Aug-20 06:00N 37°30' E 023°39'1 1.1
2018-Aug-20 05:30N 37°30' E 023°40'0 1.1
2018-Aug-20 05:03N 37°31' E 023°40'0 1.3
2018-Aug-20 05:00N 37°31' E 023°40'0 1.2
2018-Aug-20 04:47N 37°31' E 023°40'0 1.2
2018-Aug-20 04:30N 37°31' E 023°39'1 1.2
2018-Aug-20 04:00N 37°32' E 023°39'1 1.2
2018-Aug-20 03:30N 37°32' E 023°39'1 1.3
2018-Aug-20 03:00N 37°33' E 023°39'1 1.3
2018-Aug-20 02:30N 37°34' E 023°39'1 1.2
2018-Aug-20 02:00N 37°34' E 023°39'1 1.1
2018-Aug-20 01:30N 37°35' E 023°40'0 1.0
2018-Aug-20 01:00N 37°35' E 023°40'0 0.9
2018-Aug-20 00:30N 37°36' E 023°40'2 3.0
2018-Aug-20 00:00N 37°36' E 023°42'714.5
2018-Aug-19 23:30N 37°34' E 023°51'714.5
2018-Aug-19 23:00N 37°33' E 024°00'1714.6
2018-Aug-19 21:50N 37°43' E 024°18'914.9
2018-Aug-19 21:15N 37°48' E 024°27'  
2018-Aug-15 21:00N 39°21' E 024°58'816.7
2018-Aug-15 20:30N 39°26' E 024°49'1017.0
2018-Aug-15 19:55N 39°31' E 024°38'717.4
2018-Aug-15 19:30N 39°34' E 024°30'917.1
2018-Aug-15 19:00N 39°39' E 024°20'917.3
2018-Aug-15 18:30N 39°40' E 024°09'916.8
2018-Aug-15 17:57N 39°42' E 023°57'1315.9
2018-Aug-15 17:08N 39°44' E 023°41'216.4
2018-Aug-15 17:00N 39°44' E 023°38'12 0.3
2018-Aug-13 23:33N 39°47' E 023°22'116.2
2018-Aug-13 23:29N 39°47' E 023°24'816.3
2018-Aug-13 23:00N 39°45' E 023°34'1516.2
2018-Aug-13 22:06N 39°43' E 023°52'116.0
2018-Aug-13 22:00N 39°43' E 023°54'815.6
2018-Aug-13 21:30N 39°41' E 024°04'815.6
2018-Aug-13 20:59N 39°41' E 024°15'1015.1
2018-Aug-13 20:20N 39°37' E 024°27'515.3
2018-Aug-13 20:00N 39°35' E 024°33'815.2
2018-Aug-13 19:30N 39°31' E 024°41'815.7
2018-Aug-13 19:00N 39°27' E 024°50'916.2
2018-Aug-13 18:27N 39°22' E 024°60'  
2018-Aug-11 07:23N 37°49' E 024°27'818.8
2018-Aug-11 06:58N 37°44' E 024°19'2215.7
2018-Aug-11 05:33N 37°36' E 023°53'116.1
2018-Aug-11 05:30N 37°36' E 023°52'815.9
2018-Aug-11 05:00N 37°39' E 023°43'816.9
2018-Aug-11 04:30N 37°47' E 023°38'816.4
2018-Aug-11 04:01N 37°55' E 023°36'2 4.5
2018-Aug-11 03:28N 37°57' E 023°36'0 0.0
2018-Aug-11 02:58N 37°57' E 023°36'0 0.0
2018-Aug-11 02:28N 37°57' E 023°36'0 0.0
2018-Aug-11 01:58N 37°57' E 023°36'  

Dump ship's entire track history